createdAt,value
2018-08-04T00:00:09.245Z,13.87
2018-08-04T00:02:38.326Z,14.10
2018-08-04T00:05:07.683Z,14.27
2018-08-04T00:07:36.647Z,14.23
2018-08-04T00:10:10.063Z,14.47
2018-08-04T00:12:38.605Z,15.13
2018-08-04T00:15:07.218Z,14.20
2018-08-04T00:17:36.017Z,15.13
2018-08-04T00:20:04.617Z,14.27
2018-08-04T00:22:33.216Z,14.23
2018-08-04T00:25:01.698Z,14.43
2018-08-04T00:27:30.239Z,14.37
2018-08-04T00:29:58.733Z,15.00
2018-08-04T00:32:27.250Z,15.50
2018-08-04T00:34:55.741Z,14.93
2018-08-04T00:37:24.332Z,14.10
2018-08-04T00:39:52.854Z,14.53
2018-08-04T00:42:21.418Z,14.90
2018-08-04T00:44:50.061Z,14.87
2018-08-04T00:47:18.668Z,15.93
2018-08-04T00:49:47.298Z,15.30
2018-08-04T00:52:15.849Z,15.67
2018-08-04T00:54:44.407Z,15.47
2018-08-04T00:57:12.960Z,14.30
2018-08-04T00:59:41.530Z,15.10
2018-08-04T01:02:10.139Z,14.87
2018-08-04T01:04:38.640Z,15.40
2018-08-04T01:07:07.467Z,14.17
2018-08-04T01:09:36.126Z,15.50
2018-08-04T01:12:05.031Z,15.67
2018-08-04T01:14:33.587Z,13.80
2018-08-04T01:17:02.141Z,14.00
2018-08-04T01:19:30.797Z,14.80
2018-08-04T01:21:59.383Z,14.37
2018-08-04T01:24:27.865Z,15.10
2018-08-04T01:26:56.385Z,14.07
2018-08-04T01:29:24.894Z,14.47
2018-08-04T01:31:53.437Z,14.60
2018-08-04T01:34:21.970Z,14.03
2018-08-04T01:36:50.538Z,13.60
2018-08-04T01:39:19.051Z,13.70
2018-08-04T01:41:47.578Z,14.17
2018-08-04T01:44:16.111Z,14.57
2018-08-04T01:46:44.636Z,14.37
2018-08-04T01:49:13.133Z,14.37
2018-08-04T01:51:41.696Z,14.70
2018-08-04T01:54:10.182Z,14.70
2018-08-04T01:56:38.964Z,14.80
2018-08-04T01:59:07.547Z,14.30
2018-08-04T02:01:36.070Z,14.43
2018-08-04T02:04:04.625Z,13.87
2018-08-04T02:06:33.127Z,14.13
2018-08-04T02:09:01.650Z,14.20
2018-08-04T02:11:30.130Z,14.63
2018-08-04T02:13:58.683Z,14.70
2018-08-04T02:16:27.246Z,13.23
2018-08-04T02:18:55.785Z,14.17
2018-08-04T02:21:24.276Z,14.33
2018-08-04T02:23:52.843Z,14.43
2018-08-04T02:26:21.400Z,13.80
2018-08-04T02:28:49.905Z,13.77
2018-08-04T02:31:18.506Z,13.67
2018-08-04T02:33:47.022Z,14.00
2018-08-04T02:36:15.518Z,14.30
2018-08-04T02:38:44.076Z,14.43
2018-08-04T02:41:12.683Z,13.70
2018-08-04T02:43:41.177Z,13.17
2018-08-04T02:46:09.695Z,14.13
2018-08-04T02:48:38.343Z,13.87
2018-08-04T02:51:06.852Z,14.10
2018-08-04T02:53:35.381Z,12.83
2018-08-04T02:56:03.937Z,13.93
2018-08-04T02:58:32.492Z,12.93
2018-08-04T03:01:00.990Z,13.07
2018-08-04T03:03:29.674Z,13.33
2018-08-04T03:05:58.192Z,13.33
2018-08-04T03:08:27.044Z,14.03
2018-08-04T03:10:55.626Z,13.97
2018-08-04T03:13:24.258Z,13.13
2018-08-04T03:15:52.740Z,14.10
2018-08-04T03:18:21.246Z,13.77
2018-08-04T03:20:49.726Z,14.30
2018-08-04T03:23:18.307Z,14.10
2018-08-04T03:25:46.836Z,14.20
2018-08-04T03:28:15.534Z,13.97
2018-08-04T03:30:44.066Z,13.60
2018-08-04T03:33:12.560Z,14.27
2018-08-04T03:35:41.091Z,14.13
2018-08-04T03:38:09.648Z,14.53
2018-08-04T03:40:38.126Z,14.90
2018-08-04T03:43:06.909Z,14.40
2018-08-04T03:45:35.435Z,15.90
2018-08-04T03:48:03.986Z,15.10
2018-08-04T03:51:56.923Z,14.90
2018-08-04T03:54:25.433Z,14.20
2018-08-04T03:56:54.056Z,14.57
2018-08-04T03:59:22.638Z,13.87
2018-08-04T04:01:51.163Z,14.07
2018-08-04T04:04:19.705Z,13.63
2018-08-04T04:06:48.261Z,14.10
2018-08-04T04:09:16.831Z,14.20
2018-08-04T04:11:45.352Z,14.10
2018-08-04T04:14:13.900Z,14.97
2018-08-04T04:16:42.388Z,14.43
2018-08-04T04:19:10.894Z,14.03
2018-08-04T04:21:39.452Z,14.50
2018-08-04T04:24:08.113Z,13.77
2018-08-04T04:26:36.641Z,14.70
2018-08-04T04:29:05.332Z,14.53
2018-08-04T04:31:33.871Z,14.13
2018-08-04T04:34:02.428Z,13.63
2018-08-04T04:36:30.946Z,15.33
2018-08-04T04:38:59.597Z,14.50
2018-08-04T04:41:28.081Z,14.63
2018-08-04T04:43:56.647Z,14.27
2018-08-04T04:46:25.198Z,14.53
2018-08-04T04:48:53.760Z,14.27
2018-08-04T04:51:22.346Z,14.00
2018-08-04T04:53:50.972Z,13.57
2018-08-04T04:56:19.473Z,13.87
2018-08-04T04:58:48.010Z,14.47
2018-08-04T05:01:16.518Z,14.30
2018-08-04T05:03:45.066Z,13.83
2018-08-04T05:06:13.586Z,14.10
2018-08-04T05:08:42.143Z,13.83
2018-08-04T05:11:10.719Z,14.03
2018-08-04T05:13:39.250Z,13.67
2018-08-04T05:16:07.844Z,13.50
2018-08-04T05:18:36.377Z,13.40
2018-08-04T05:21:05.305Z,14.83
2018-08-04T05:23:33.850Z,13.10
2018-08-04T05:26:11.545Z,13.67
2018-08-04T05:28:40.693Z,13.40
2018-08-04T05:31:09.593Z,13.20
2018-08-04T05:33:38.119Z,14.00
2018-08-04T05:36:06.803Z,13.10
2018-08-04T05:38:35.333Z,13.73
2018-08-04T05:41:03.883Z,13.33
2018-08-04T05:43:32.426Z,13.57
2018-08-04T05:46:06.413Z,13.13
2018-08-04T05:48:34.957Z,12.40
2018-08-04T05:51:03.534Z,13.67
2018-08-04T05:56:25.839Z,14.03
2018-08-04T05:58:54.753Z,14.40
2018-08-04T06:01:23.303Z,12.70
2018-08-04T06:03:51.874Z,14.40
2018-08-04T06:06:20.372Z,13.33
2018-08-04T06:08:48.879Z,13.77
2018-08-04T06:11:17.422Z,14.40
2018-08-04T06:13:45.913Z,14.20
2018-08-04T06:16:14.437Z,13.90
2018-08-04T06:18:42.921Z,14.43
2018-08-04T06:21:11.429Z,14.13
2018-08-04T06:23:39.993Z,14.80
2018-08-04T06:26:08.545Z,14.65
2018-08-04T06:28:37.051Z,13.88
2018-08-04T06:31:05.577Z,14.93
2018-08-04T06:33:34.074Z,14.47
2018-08-04T06:36:02.633Z,14.03
2018-08-04T06:38:31.152Z,15.13
2018-08-04T06:40:59.658Z,14.40
2018-08-04T06:43:28.165Z,12.70
2018-08-04T06:45:56.670Z,12.55
2018-08-04T06:48:25.201Z,13.62
2018-08-04T06:50:53.941Z,13.38
2018-08-04T06:53:22.433Z,13.55
2018-08-04T06:55:50.937Z,14.65
2018-08-04T06:58:19.448Z,13.85
2018-08-04T07:00:47.989Z,15.35
2018-08-04T07:03:16.480Z,13.62
2018-08-04T07:05:44.962Z,13.85
2018-08-04T07:08:13.499Z,13.65
2018-08-04T07:10:41.981Z,14.43
2018-08-04T07:13:10.469Z,13.58
2018-08-04T07:15:39.008Z,14.70
2018-08-04T07:18:07.503Z,14.50
2018-08-04T07:20:36.070Z,13.22
2018-08-04T07:23:04.593Z,13.15
2018-08-04T07:25:33.123Z,13.30
2018-08-04T07:28:01.637Z,12.58
2018-08-04T07:30:30.186Z,13.00
2018-08-04T07:32:58.977Z,14.95
2018-08-04T07:35:27.782Z,14.33
2018-08-04T07:37:56.739Z,13.95
2018-08-04T07:40:25.279Z,13.60
2018-08-04T07:42:53.902Z,14.00
2018-08-04T07:45:22.441Z,14.30
2018-08-04T07:47:50.999Z,14.20
2018-08-04T07:50:19.536Z,14.28
2018-08-04T07:52:48.094Z,12.30
2018-08-04T07:55:16.969Z,14.58
2018-08-04T07:57:45.605Z,13.30
2018-08-04T08:00:14.162Z,12.40
2018-08-04T08:02:42.718Z,13.03
2018-08-04T08:05:11.213Z,12.37
2018-08-04T08:07:39.825Z,12.82
2018-08-04T08:10:08.332Z,11.28
2018-08-04T08:12:36.844Z,10.78
2018-08-04T08:15:06.984Z,11.50
2018-08-04T08:17:35.533Z,11.88
2018-08-04T08:20:04.716Z,12.33
2018-08-04T08:22:40.180Z,11.18
2018-08-04T08:25:09.259Z,11.33
2018-08-04T08:27:38.292Z,10.90
2018-08-04T08:30:09.174Z,11.53
2018-08-04T08:32:37.777Z,11.05
2018-08-04T08:35:06.861Z,16.80
2018-08-04T08:37:35.501Z,11.18
2018-08-04T08:40:04.195Z,11.55
2018-08-04T08:42:32.749Z,10.82
2018-08-04T08:45:01.488Z,10.25
2018-08-04T08:48:59.173Z,11.03
2018-08-04T08:51:27.678Z,10.38
2018-08-04T08:53:56.265Z,9.88
2018-08-04T08:56:24.729Z,9.78
2018-08-04T08:58:53.431Z,10.15
2018-08-04T09:01:21.996Z,10.50
2018-08-04T09:03:50.549Z,10.68
2018-08-04T09:06:19.258Z,10.38
2018-08-04T09:08:48.780Z,10.80
2018-08-04T09:11:17.265Z,11.10
2018-08-04T09:13:45.861Z,10.82
2018-08-04T09:16:14.473Z,10.70
2018-08-04T09:18:43.490Z,10.18
2018-08-04T09:21:12.046Z,10.38
2018-08-04T09:23:40.560Z,10.80
2018-08-04T09:26:09.158Z,10.63
2018-08-04T09:28:37.766Z,9.85
2018-08-04T09:31:06.730Z,10.72
2018-08-04T09:33:36.088Z,10.03
2018-08-04T09:36:04.661Z,9.50
2018-08-04T09:38:33.670Z,10.03
2018-08-04T09:41:02.200Z,9.40
2018-08-04T09:43:30.804Z,9.55
2018-08-04T09:45:59.365Z,9.90
2018-08-04T09:48:27.968Z,9.70
2018-08-04T09:50:56.538Z,10.48
2018-08-04T09:53:25.604Z,9.20
2018-08-04T09:55:54.157Z,9.50
2018-08-04T09:58:22.726Z,9.48
2018-08-04T10:00:56.889Z,9.10
2018-08-04T10:03:25.540Z,9.60
2018-08-04T10:05:54.165Z,8.73
2018-08-04T10:08:22.763Z,9.45
2018-08-04T10:10:51.433Z,10.70
2018-08-04T10:13:19.977Z,9.30
2018-08-04T10:15:48.467Z,8.90
2018-08-04T10:18:17.082Z,8.30
2018-08-04T10:20:45.701Z,9.03
2018-08-04T10:23:14.270Z,7.80
2018-08-04T10:25:42.813Z,8.18
2018-08-04T10:28:11.454Z,8.35
2018-08-04T10:30:39.925Z,8.50
2018-08-04T10:33:08.446Z,8.03
2018-08-04T10:35:37.034Z,8.28
2018-08-04T10:38:05.631Z,8.00
2018-08-04T10:40:34.178Z,8.50
2018-08-04T10:43:02.694Z,7.90
2018-08-04T10:45:31.260Z,8.25
2018-08-04T10:47:59.789Z,8.25
2018-08-04T10:50:28.381Z,7.85
2018-08-04T10:52:56.961Z,7.03
2018-08-04T10:55:25.553Z,7.37
2018-08-04T10:57:54.093Z,6.80
2018-08-04T11:00:22.721Z,7.40
2018-08-04T11:02:51.311Z,7.28
2018-08-04T11:05:19.885Z,7.53
2018-08-04T11:07:48.425Z,7.87
2018-08-04T11:10:17.457Z,7.75
2018-08-04T11:12:45.961Z,7.58
2018-08-04T11:15:14.557Z,8.73
2018-08-04T11:17:43.128Z,8.65
2018-08-04T11:20:11.742Z,8.60
2018-08-04T11:22:40.361Z,8.10
2018-08-04T11:25:08.988Z,9.03
2018-08-04T11:27:37.585Z,8.20
2018-08-04T11:30:07.399Z,8.90
2018-08-04T11:32:35.929Z,9.20
2018-08-04T11:35:04.481Z,8.45
2018-08-04T11:37:33.629Z,8.68
2018-08-04T11:40:02.165Z,8.90
2018-08-04T11:42:30.686Z,10.10
2018-08-04T11:44:59.261Z,8.70
2018-08-04T11:47:27.764Z,9.43
2018-08-04T11:49:56.330Z,10.08
2018-08-04T11:52:24.862Z,10.43
2018-08-04T11:54:53.377Z,9.85
2018-08-04T11:57:21.893Z,9.43
2018-08-04T11:59:50.433Z,9.80
2018-08-04T12:02:18.941Z,9.33
2018-08-04T12:04:47.456Z,9.43
2018-08-04T12:07:15.961Z,9.03
2018-08-04T12:09:44.514Z,8.95
2018-08-04T12:12:13.020Z,9.13
2018-08-04T12:14:41.548Z,9.25
2018-08-04T12:17:10.058Z,9.75
2018-08-04T12:19:38.565Z,9.53
2018-08-04T12:22:07.489Z,7.08
2018-08-04T12:24:35.956Z,7.05
2018-08-04T12:27:04.505Z,7.67
2018-08-04T12:29:33.008Z,8.50
2018-08-04T12:32:01.530Z,8.68
2018-08-04T12:34:30.037Z,9.08
2018-08-04T12:36:58.572Z,9.30
2018-08-04T12:39:27.093Z,8.78
2018-08-04T12:41:55.624Z,7.85
2018-08-04T12:44:24.124Z,6.50
2018-08-04T12:46:52.956Z,6.70
2018-08-04T12:49:21.514Z,5.70
2018-08-04T12:51:50.061Z,6.70
2018-08-04T12:54:18.605Z,6.20
2018-08-04T12:56:47.193Z,7.15
2018-08-04T12:59:16.277Z,6.30
2018-08-04T13:01:44.874Z,6.15
2018-08-04T13:04:13.358Z,6.45
2018-08-04T13:06:41.934Z,6.90
2018-08-04T13:09:11.481Z,7.28
2018-08-04T13:11:40.023Z,7.85
2018-08-04T13:14:08.614Z,7.75
2018-08-04T13:16:37.137Z,7.78
2018-08-04T13:19:05.872Z,7.78
2018-08-04T13:21:34.385Z,8.50
2018-08-04T13:24:02.940Z,7.90
2018-08-04T13:26:31.469Z,8.23
2018-08-04T13:29:00.059Z,8.53
2018-08-04T13:31:28.637Z,8.65
2018-08-04T13:33:57.149Z,8.80
2018-08-04T13:36:26.025Z,8.38
2018-08-04T13:38:54.519Z,8.28
2018-08-04T13:41:23.149Z,8.38
2018-08-04T13:43:51.764Z,7.65
2018-08-04T13:46:20.321Z,7.90
2018-08-04T13:48:48.849Z,7.53
2018-08-04T13:51:17.514Z,7.40
2018-08-04T13:53:46.016Z,7.03
2018-08-04T13:56:18.514Z,7.25
2018-08-04T13:58:49.164Z,7.10
2018-08-04T14:01:18.050Z,7.22
2018-08-04T14:03:48.191Z,6.95
2018-08-04T14:06:16.732Z,6.75
2018-08-04T14:08:45.210Z,6.80
2018-08-04T14:11:13.741Z,7.05
2018-08-04T14:13:42.264Z,7.35
2018-08-04T14:16:10.769Z,7.12
2018-08-04T14:18:39.282Z,7.10
2018-08-04T14:21:07.805Z,7.20
2018-08-04T14:23:36.330Z,7.58
2018-08-04T14:26:04.874Z,10.08
2018-08-04T14:28:34.049Z,7.95
2018-08-04T14:31:02.862Z,8.03
2018-08-04T14:33:31.475Z,8.83
2018-08-04T14:36:00.023Z,8.68
2018-08-04T14:38:28.597Z,8.28
2018-08-04T14:40:57.118Z,9.00
2018-08-04T14:43:25.706Z,8.78
2018-08-04T14:45:54.812Z,8.93
2018-08-04T14:48:25.176Z,9.45
2018-08-04T14:50:53.777Z,9.05
2018-08-04T14:53:22.389Z,9.20
2018-08-04T14:55:50.904Z,9.65
2018-08-04T14:58:20.612Z,8.98
2018-08-04T15:00:49.558Z,9.10
2018-08-04T15:03:18.163Z,9.23
2018-08-04T15:05:46.830Z,8.85
2018-08-04T15:08:15.345Z,9.28
2018-08-04T15:10:44.362Z,8.85
2018-08-04T15:13:13.137Z,8.23
2018-08-04T15:15:41.717Z,8.78
2018-08-04T15:18:10.982Z,8.58
2018-08-04T15:20:39.979Z,8.38
2018-08-04T15:23:08.548Z,8.43
2018-08-04T15:25:37.185Z,8.80
2018-08-04T15:28:06.135Z,8.80
2018-08-04T15:30:36.586Z,8.40
2018-08-04T15:33:05.174Z,8.70
2018-08-04T15:35:33.725Z,8.25
2018-08-04T15:38:02.654Z,8.38
2018-08-04T15:40:31.169Z,8.28
2018-08-04T15:42:59.812Z,7.95
2018-08-04T15:45:28.333Z,8.53
2018-08-04T15:47:56.942Z,9.23
2018-08-04T15:50:25.701Z,8.20
2018-08-04T15:52:54.245Z,7.55
2018-08-04T15:55:22.924Z,8.30
2018-08-04T15:57:51.543Z,9.35
2018-08-04T16:00:20.105Z,7.80
2018-08-04T16:02:48.682Z,8.15
2018-08-04T16:05:17.292Z,7.35
2018-08-04T16:07:45.834Z,7.85
2018-08-04T16:10:14.931Z,8.10
2018-08-04T16:12:43.485Z,8.20
2018-08-04T16:15:12.098Z,10.18
2018-08-04T16:17:40.660Z,8.45
2018-08-04T16:20:15.403Z,8.73
2018-08-04T16:22:44.341Z,8.20
2018-08-04T16:25:13.353Z,8.55
2018-08-04T16:27:42.395Z,10.43
2018-08-04T16:30:11.645Z,10.53
2018-08-04T16:32:41.520Z,10.68
2018-08-04T16:35:10.383Z,10.40
2018-08-04T16:37:38.933Z,11.03
2018-08-04T16:40:07.966Z,10.65
2018-08-04T16:42:37.563Z,11.33
2018-08-04T16:45:07.026Z,11.05
2018-08-04T16:47:35.583Z,11.38
2018-08-04T16:50:04.237Z,10.85
2018-08-04T16:52:33.101Z,10.48
2018-08-04T16:55:01.686Z,10.05
2018-08-04T16:57:30.219Z,10.93
2018-08-04T16:59:58.726Z,10.63
2018-08-04T17:02:27.255Z,10.65
2018-08-04T17:04:55.875Z,10.28
2018-08-04T17:07:24.361Z,10.23
2018-08-04T17:09:52.988Z,10.30
2018-08-04T17:12:21.602Z,9.98
2018-08-04T17:14:50.093Z,9.80
2018-08-04T17:17:18.604Z,9.98
2018-08-04T17:19:47.157Z,9.65
2018-08-04T17:22:15.829Z,10.48
2018-08-04T17:24:44.354Z,10.35
2018-08-04T17:27:12.896Z,10.50
2018-08-04T17:29:41.409Z,10.10
2018-08-04T17:32:10.653Z,10.70
2018-08-04T17:34:39.187Z,10.60
2018-08-04T17:37:07.676Z,11.25
2018-08-04T17:39:36.220Z,10.53
2018-08-04T17:42:04.771Z,10.85
2018-08-04T17:44:33.286Z,11.30
2018-08-04T17:47:01.802Z,10.70
2018-08-04T17:49:30.276Z,11.48
2018-08-04T17:51:58.806Z,11.80
2018-08-04T17:54:27.304Z,11.93
2018-08-04T17:56:55.914Z,12.13
2018-08-04T17:59:24.346Z,11.60
2018-08-04T18:01:52.954Z,13.03
2018-08-04T18:04:21.452Z,11.80
2018-08-04T18:06:50.002Z,12.30
2018-08-04T18:09:18.481Z,11.78
2018-08-04T18:11:47.018Z,12.65
2018-08-04T18:14:15.527Z,13.38
2018-08-04T18:16:44.058Z,13.03
2018-08-04T18:19:12.538Z,12.63
2018-08-04T18:21:41.082Z,13.30
2018-08-04T18:24:09.561Z,12.93
2018-08-04T18:26:38.085Z,13.08
2018-08-04T18:29:06.568Z,12.53
2018-08-04T18:31:35.823Z,13.18
2018-08-04T18:34:04.338Z,13.75
2018-08-04T18:36:32.853Z,13.62
2018-08-04T18:39:01.345Z,13.93
2018-08-04T18:41:29.882Z,14.43
2018-08-04T18:43:58.371Z,13.60
2018-08-04T18:46:26.872Z,13.63
2018-08-04T18:48:55.350Z,13.30
2018-08-04T18:51:23.852Z,14.13
2018-08-04T18:53:52.338Z,13.70
2018-08-04T18:56:20.869Z,13.20
2018-08-04T18:58:49.375Z,14.10
2018-08-04T19:01:17.889Z,13.47
2018-08-04T19:03:46.377Z,14.37
2018-08-04T19:06:14.910Z,13.57
2018-08-04T19:08:43.381Z,13.40
2018-08-04T19:11:11.963Z,13.30
2018-08-04T19:13:40.456Z,14.90
2018-08-04T19:16:09.067Z,14.70
2018-08-04T19:18:41.082Z,14.10
2018-08-04T19:21:09.644Z,14.70
2018-08-04T19:23:38.225Z,13.73
2018-08-04T19:26:06.861Z,14.53
2018-08-04T19:28:35.396Z,14.83
2018-08-04T19:31:03.901Z,14.37
2018-08-04T19:33:32.435Z,14.73
2018-08-04T19:36:00.952Z,15.13
2018-08-04T19:38:29.458Z,15.23
2018-08-04T19:40:57.985Z,15.70
2018-08-04T19:43:26.521Z,15.27
2018-08-04T19:45:55.063Z,15.43
2018-08-04T19:48:23.593Z,14.87
2018-08-04T19:50:52.137Z,14.90
2018-08-04T19:53:20.630Z,14.17
2018-08-04T19:55:49.387Z,14.67
2018-08-04T19:58:17.906Z,14.67
2018-08-04T20:00:46.422Z,14.70
2018-08-04T20:03:14.972Z,15.57
2018-08-04T20:05:43.462Z,15.00
2018-08-04T20:08:12.001Z,15.77
2018-08-04T20:10:40.501Z,15.47
2018-08-04T20:13:09.034Z,15.27
2018-08-04T20:15:38.203Z,16.40
2018-08-04T20:18:06.704Z,15.43
2018-08-04T20:20:35.188Z,15.80
2018-08-04T20:23:03.729Z,16.70
2018-08-04T20:25:32.408Z,16.83
2018-08-04T20:28:00.928Z,15.33
2018-08-04T20:30:29.446Z,16.00
2018-08-04T20:32:57.979Z,16.77
2018-08-04T20:35:26.532Z,16.23
2018-08-04T20:37:55.045Z,16.47
2018-08-04T20:40:23.560Z,16.93
2018-08-04T20:42:52.084Z,16.20
2018-08-04T20:45:20.561Z,16.67
2018-08-04T20:47:49.082Z,15.90
2018-08-04T20:50:17.680Z,16.23
2018-08-04T20:52:46.215Z,16.27
2018-08-04T20:55:14.701Z,16.57
2018-08-04T20:57:43.220Z,16.70
2018-08-04T21:00:11.704Z,17.13
2018-08-04T21:02:40.238Z,16.53
2018-08-04T21:05:08.762Z,16.93
2018-08-04T21:07:37.270Z,16.60
2018-08-04T21:10:05.925Z,17.03
2018-08-04T21:12:35.004Z,16.63
2018-08-04T21:15:04.153Z,15.93
2018-08-04T21:17:32.640Z,16.93
2018-08-04T21:20:01.155Z,16.60
2018-08-04T21:22:29.665Z,17.10
2018-08-04T21:24:59.165Z,17.50
2018-08-04T21:27:27.653Z,17.23
2018-08-04T21:29:56.191Z,16.70
2018-08-04T21:32:24.690Z,16.73
2018-08-04T21:34:53.787Z,16.10
2018-08-04T21:37:22.310Z,16.80
2018-08-04T21:39:50.844Z,16.03
2018-08-04T21:42:22.661Z,15.10
2018-08-04T21:44:51.153Z,16.67
2018-08-04T21:47:19.622Z,16.83
2018-08-04T21:49:48.126Z,16.23
2018-08-04T21:52:19.788Z,16.57
2018-08-04T21:54:48.285Z,17.03
2018-08-04T21:57:16.773Z,16.80
2018-08-04T21:59:45.307Z,16.47
2018-08-04T22:02:13.800Z,17.10
2018-08-04T22:04:42.338Z,17.33
2018-08-04T22:07:48.093Z,17.33
2018-08-04T22:10:16.924Z,17.30
2018-08-04T22:12:45.628Z,18.17
2018-08-04T22:15:15.219Z,18.70
2018-08-04T22:17:43.778Z,19.50
2018-08-04T22:20:13.757Z,19.03
2018-08-04T22:22:42.727Z,18.73
2018-08-04T22:25:15.726Z,16.63
2018-08-04T22:27:44.259Z,17.90
2018-08-04T22:30:14.023Z,17.87
2018-08-04T22:32:43.152Z,19.63
2018-08-04T22:35:11.840Z,20.93
2018-08-04T22:37:41.026Z,19.20
2018-08-04T22:40:10.835Z,19.33
2018-08-04T22:42:39.750Z,20.43
2018-08-04T22:46:22.897Z,20.87
2018-08-04T22:48:52.577Z,19.00
2018-08-04T22:51:36.513Z,19.07
2018-08-04T22:54:05.161Z,19.40
2018-08-04T22:56:33.718Z,19.13
2018-08-04T22:59:02.262Z,18.73
2018-08-04T23:01:30.826Z,19.20
2018-08-04T23:03:59.372Z,19.47
2018-08-04T23:06:27.970Z,19.53
2018-08-04T23:08:56.504Z,18.63
2018-08-04T23:11:25.071Z,19.43
2018-08-04T23:13:53.561Z,18.83
2018-08-04T23:16:22.102Z,19.87
2018-08-04T23:18:50.652Z,19.43
2018-08-04T23:21:19.196Z,20.27
2018-08-04T23:23:47.731Z,19.63
2018-08-04T23:26:17.413Z,18.33
2018-08-04T23:28:45.968Z,18.30
2018-08-04T23:31:14.517Z,19.07
2018-08-04T23:33:44.017Z,19.57
2018-08-04T23:36:12.601Z,18.50
2018-08-04T23:38:41.392Z,18.17
2018-08-04T23:41:09.962Z,18.10
2018-08-04T23:43:38.477Z,18.47
2018-08-04T23:46:07.087Z,19.10
2018-08-04T23:48:35.597Z,18.37
2018-08-04T23:51:04.181Z,18.07
2018-08-04T23:53:33.143Z,18.57
2018-08-04T23:56:01.698Z,19.10
2018-08-04T23:58:30.233Z,17.80
